• Join FlightAware (Why Join?)
  • Login
  • US Flag 
06:07AM EDT


 

Airport Tracker/Info


-or-


 

Live Flight TrackerFlight Track Log ✈ SKW5500 ✈ 30-Apr-2013 ✈ KDEN - KASE

Flight Track Log - Related Links

Times and Time Zones

All times are in EDT time to prevent confusion due to time zone crossing. See the SKW5500 flight status page for this flight to view local times or setup timezone preferences in your user account.

Time Position Orientation Groundspeed Altitude Reporting Facility
EDT Latitude Longitude Course Direction KTS MPH feet Rate Location/Type
05:20PM 39.9122 -104.6983 255° West 176 203 6,700  Level Denver Center
05:21PM 39.9703 -104.7314 336° Northwest 227 261 8,600 1,740 Climbing Denver Center
05:22PM 40.0467 -104.7667 341° North 289 333 10,300 2,580 Climbing Denver Center
05:23PM 39.7707 -105.1491 259° West  Level FlightAware Approximate
05:23PM 40.1253 -104.8183 333° Northwest 298 343 14,000  Level Denver Center
05:24PM 39.7520 -105.2703 259° West  Level FlightAware Approximate
05:24PM 40.1172 -104.9167 264° West 283 326 16,800  Level Denver Center
05:25PM 39.7376 -105.3914 255° West  Level FlightAware Approximate
05:25PM 40.0692 -105.0061 235° Southwest 283 326 19,200  Level Denver Center
05:26PM 40.0206 -105.0950 234° Southwest 300 345 21,000 1,320 Climbing Denver Center
05:27PM 39.9669 -105.1908 234° Southwest 325 374 22,000 480 Climbing Denver Center
05:28PM 39.9058 -105.3000 234° Southwest 344 396 22,000  Level Denver Center
05:29PM 39.8503 -105.3981 234° Southwest 338 389 22,000  Level Denver Center
05:31PM 39.8122 -105.5136 247° West 324 373 22,000  Level Denver Center
05:32PM 39.7744 -105.6558 251° West 339 390 22,000  Level Denver Center
05:33PM 39.7361 -105.7986 251° West 341 392 22,000  Level Denver Center
05:34PM 39.7106 -105.8944 251° West 325 374 22,000  Level Denver Center
05:35PM 39.6756 -106.0261 251° West 322 371 22,000  Level Denver Center
05:36PM 39.6444 -106.1414 251° West 334 384 22,000 -300 Level Denver Center
05:37PM 39.6153 -106.2519 251° West 325 374 21,400 -1,020 Descending Denver Center
05:38PM 39.5858 -106.3600 251° West 319 367 20,000 -720 Descending Denver Center
05:39PM 39.5606 -106.4519 250° West 274 315 20,000  Level Denver Center
05:40PM 39.5350 -106.5453 250° West 253 291 20,000 -300 Level Denver Center
05:41PM 39.5094 -106.6392 251° West 249 287 19,400 -1,260 Descending Denver Center
05:42PM 39.4869 -106.7203 250° West 250 288 17,500 -1,980 Descending Denver Center
05:43PM 39.4611 -106.8144 250° West 249 287 15,400 -1,860 Descending Denver Center
05:44PM 39.4369 -106.8908 248° West 241 277 13,700 -1,320 Descending Denver Center
05:45PM 39.3919 -106.9403 220° Southwest 215 247 12,700 -1,020 Descending Denver Center